createdAt,value
2022-11-23T00:00:06.883Z,17.39
2022-11-23T00:00:16.884Z,17.39
2022-11-23T00:00:26.886Z,17.39
2022-11-23T00:00:36.887Z,17.39
2022-11-23T00:00:46.869Z,17.39
2022-11-23T00:00:56.891Z,17.40
2022-11-23T00:01:06.889Z,17.39
2022-11-23T00:01:16.897Z,17.40
2022-11-23T00:01:26.894Z,17.40
2022-11-23T00:01:36.897Z,17.42
2022-11-23T00:01:46.939Z,17.40
2022-11-23T00:01:57.001Z,17.39
2022-11-23T00:02:06.942Z,17.39
2022-11-23T00:02:16.996Z,17.39
2022-11-23T00:02:26.944Z,17.39
2022-11-23T00:02:36.913Z,17.39
2022-11-23T00:02:46.912Z,17.39
2022-11-23T00:02:56.900Z,17.39
2022-11-23T00:03:06.903Z,17.40
2022-11-23T00:03:16.904Z,17.39
2022-11-23T00:03:26.887Z,17.39
2022-11-23T00:03:36.905Z,17.39
2022-11-23T00:03:46.908Z,17.40
2022-11-23T00:03:56.919Z,17.39
2022-11-23T00:04:06.907Z,17.40
2022-11-23T00:04:16.910Z,17.39
2022-11-23T00:04:26.909Z,17.40
2022-11-23T00:04:36.911Z,17.40
2022-11-23T00:04:46.910Z,17.40
2022-11-23T00:04:56.912Z,17.42
2022-11-23T00:05:06.916Z,17.40
2022-11-23T00:05:16.909Z,17.39
2022-11-23T00:05:26.917Z,17.40
2022-11-23T00:05:36.918Z,17.40
2022-11-23T00:05:46.917Z,17.42
2022-11-23T00:05:56.917Z,17.42
2022-11-23T00:06:06.920Z,17.40
2022-11-23T00:06:16.928Z,17.39
2022-11-23T00:06:26.921Z,17.40
2022-11-23T00:06:36.936Z,17.40
2022-11-23T00:06:46.924Z,17.40
2022-11-23T00:06:56.925Z,17.40
2022-11-23T00:07:06.974Z,17.40
2022-11-23T00:07:16.969Z,17.40
2022-11-23T00:07:27.045Z,17.39
2022-11-23T00:07:37.010Z,17.40
2022-11-23T00:07:46.975Z,17.40
2022-11-23T00:07:56.929Z,17.40
2022-11-23T00:08:06.930Z,17.40
2022-11-23T00:08:16.933Z,17.40
2022-11-23T00:08:26.935Z,17.40
2022-11-23T00:08:36.933Z,17.40
2022-11-23T00:08:46.937Z,17.40
2022-11-23T00:08:56.943Z,17.40
2022-11-23T00:09:06.934Z,17.40
2022-11-23T00:09:16.934Z,17.40
2022-11-23T00:09:26.935Z,17.39
2022-11-23T00:09:36.936Z,17.40
2022-11-23T00:09:46.941Z,17.42
2022-11-23T00:09:56.936Z,17.40
2022-11-23T00:10:06.939Z,17.38
2022-11-23T00:10:16.938Z,17.39
2022-11-23T00:10:26.941Z,17.39
2022-11-23T00:10:36.944Z,17.40
2022-11-23T00:10:46.941Z,17.40
2022-11-23T00:10:56.942Z,17.40
2022-11-23T00:11:06.944Z,17.40
2022-11-23T00:11:16.947Z,17.39
2022-11-23T00:11:26.947Z,17.39
2022-11-23T00:11:36.950Z,17.39
2022-11-23T00:11:46.949Z,17.40
2022-11-23T00:11:56.949Z,17.40
2022-11-23T00:12:06.951Z,17.40
2022-11-23T00:12:16.982Z,17.39
2022-11-23T00:12:26.953Z,17.40
2022-11-23T00:12:36.952Z,17.42
2022-11-23T00:12:46.954Z,17.40
2022-11-23T00:12:56.966Z,17.40
2022-11-23T00:13:06.953Z,17.40
2022-11-23T00:13:16.956Z,17.40
2022-11-23T00:13:26.955Z,17.40
2022-11-23T00:13:36.954Z,17.40
2022-11-23T00:13:47.074Z,17.40
2022-11-23T00:13:56.959Z,17.40
2022-11-23T00:14:06.959Z,17.40
2022-11-23T00:14:16.959Z,17.42
2022-11-23T00:14:26.961Z,17.39
2022-11-23T00:14:36.962Z,17.40
2022-11-23T00:14:46.964Z,17.40
2022-11-23T00:14:56.968Z,17.39
2022-11-23T00:15:06.964Z,17.40
2022-11-23T00:15:16.948Z,17.40
2022-11-23T00:15:26.965Z,17.40
2022-11-23T00:15:36.967Z,17.40
2022-11-23T00:15:46.972Z,17.39
2022-11-23T00:15:56.971Z,17.39
2022-11-23T00:16:06.976Z,17.40
2022-11-23T00:16:16.974Z,17.39
2022-11-23T00:16:26.971Z,17.40
2022-11-23T00:16:36.975Z,17.40
2022-11-23T00:16:46.973Z,17.40
2022-11-23T00:16:56.984Z,17.39
2022-11-23T00:17:06.974Z,17.40
2022-11-23T00:17:16.973Z,17.39
2022-11-23T00:17:26.979Z,17.39
2022-11-23T00:17:36.976Z,17.39
2022-11-23T00:17:46.978Z,17.39
2022-11-23T00:17:56.977Z,17.39
2022-11-23T00:18:06.980Z,17.39
2022-11-23T00:18:16.984Z,17.38
2022-11-23T00:18:26.982Z,17.38
2022-11-23T00:18:36.982Z,17.38
2022-11-23T00:18:46.986Z,17.39
2022-11-23T00:18:56.983Z,17.39
2022-11-23T00:19:06.987Z,17.38
2022-11-23T00:19:16.989Z,17.39
2022-11-23T00:19:26.985Z,17.39
2022-11-23T00:19:36.988Z,17.39
2022-11-23T00:19:46.995Z,17.39
2022-11-23T00:19:56.990Z,17.38
2022-11-23T00:20:06.993Z,17.39
2022-11-23T00:20:16.998Z,17.38
2022-11-23T00:20:26.992Z,17.38
2022-11-23T00:20:36.991Z,17.39
2022-11-23T00:20:46.995Z,17.38
2022-11-23T00:20:56.994Z,17.38
2022-11-23T00:21:06.997Z,17.39
2022-11-23T00:21:17.003Z,17.39
2022-11-23T00:21:27.013Z,17.38
2022-11-23T00:21:36.998Z,17.38
2022-11-23T00:21:47.005Z,17.39
2022-11-23T00:21:56.985Z,17.39
2022-11-23T00:22:07.004Z,17.38
2022-11-23T00:22:17.004Z,17.38
2022-11-23T00:22:27.003Z,17.39
2022-11-23T00:22:37.003Z,17.39
2022-11-23T00:22:47.005Z,17.39
2022-11-23T00:22:57.006Z,17.39
2022-11-23T00:23:07.004Z,17.39
2022-11-23T00:23:17.006Z,17.40
2022-11-23T00:23:27.008Z,17.39
2022-11-23T00:23:37.013Z,17.40
2022-11-23T00:23:47.008Z,17.39
2022-11-23T00:23:57.010Z,17.39
2022-11-23T00:24:07.011Z,17.40
2022-11-23T00:24:17.015Z,17.40
2022-11-23T00:24:27.120Z,17.39
2022-11-23T00:24:37.093Z,17.39
2022-11-23T00:24:47.058Z,17.40
2022-11-23T00:24:57.045Z,17.39
2022-11-23T00:25:07.044Z,17.39
2022-11-23T00:25:17.101Z,17.38
2022-11-23T00:25:27.017Z,17.39
2022-11-23T00:25:37.017Z,17.39
2022-11-23T00:25:47.020Z,17.39
2022-11-23T00:25:57.017Z,17.39
2022-11-23T00:26:07.022Z,17.39
2022-11-23T00:26:17.021Z,17.39
2022-11-23T00:26:27.023Z,17.39
2022-11-23T00:26:37.021Z,17.38
2022-11-23T00:26:47.024Z,17.39
2022-11-23T00:26:57.022Z,17.38
2022-11-23T00:27:07.029Z,17.38
2022-11-23T00:27:17.026Z,17.39
2022-11-23T00:27:27.030Z,17.38
2022-11-23T00:27:37.034Z,17.38
2022-11-23T00:27:47.031Z,17.38
2022-11-23T00:27:57.035Z,17.39
2022-11-23T00:28:07.032Z,17.38
2022-11-23T00:28:17.031Z,17.38
2022-11-23T00:28:27.032Z,17.39
2022-11-23T00:28:37.039Z,17.38
2022-11-23T00:28:47.035Z,17.38
2022-11-23T00:28:57.035Z,17.39
2022-11-23T00:29:07.033Z,17.39
2022-11-23T00:29:17.019Z,17.39
2022-11-23T00:29:27.037Z,17.38
2022-11-23T00:29:37.039Z,17.39
2022-11-23T00:29:47.038Z,17.38
2022-11-23T00:29:57.040Z,17.39
2022-11-23T00:30:07.037Z,17.38
2022-11-23T00:30:17.042Z,17.38
2022-11-23T00:30:27.052Z,17.36
2022-11-23T00:30:37.025Z,17.36
2022-11-23T00:30:47.049Z,17.36
2022-11-23T00:30:57.043Z,17.36
2022-11-23T00:31:07.046Z,17.39
2022-11-23T00:31:17.052Z,17.39
2022-11-23T00:31:27.045Z,17.38
2022-11-23T00:31:37.057Z,17.39
2022-11-23T00:31:47.047Z,17.39
2022-11-23T00:31:57.047Z,17.39
2022-11-23T00:32:07.048Z,17.39
2022-11-23T00:32:17.051Z,17.38
2022-11-23T00:32:27.063Z,17.36
2022-11-23T00:32:37.055Z,17.38
2022-11-23T00:32:47.057Z,17.36
2022-11-23T00:32:57.056Z,17.38
2022-11-23T00:33:07.057Z,17.36
2022-11-23T00:33:17.060Z,17.38
2022-11-23T00:33:27.056Z,17.38
2022-11-23T00:33:37.060Z,17.38
2022-11-23T00:33:47.058Z,17.38
2022-11-23T00:33:57.059Z,17.39
2022-11-23T00:34:07.064Z,17.38
2022-11-23T00:34:17.059Z,17.39
2022-11-23T00:34:27.063Z,17.39
2022-11-23T00:34:37.070Z,17.39
2022-11-23T00:34:47.060Z,17.39
2022-11-23T00:34:57.068Z,17.38
2022-11-23T00:35:07.063Z,17.39
2022-11-23T00:35:17.067Z,17.38
2022-11-23T00:35:27.066Z,17.38
2022-11-23T00:35:37.066Z,17.38
2022-11-23T00:35:47.050Z,17.39
2022-11-23T00:35:57.070Z,17.38
2022-11-23T00:36:07.062Z,17.38
2022-11-23T00:36:17.074Z,17.38
2022-11-23T00:36:27.072Z,17.38
2022-11-23T00:36:37.073Z,17.39
2022-11-23T00:36:47.074Z,17.38
2022-11-23T00:36:57.075Z,17.38
2022-11-23T00:37:07.076Z,17.38
2022-11-23T00:37:17.076Z,17.39
2022-11-23T00:37:27.078Z,17.39
2022-11-23T00:37:37.091Z,17.38
2022-11-23T00:37:47.080Z,17.38
2022-11-23T00:37:57.082Z,17.38
2022-11-23T00:38:07.082Z,17.39
2022-11-23T00:38:17.082Z,17.38
2022-11-23T00:38:27.086Z,17.39
2022-11-23T00:38:37.085Z,17.39
2022-11-23T00:38:47.082Z,17.38
2022-11-23T00:38:57.086Z,17.39
2022-11-23T00:39:07.087Z,17.39
2022-11-23T00:39:17.088Z,17.39
2022-11-23T00:39:27.089Z,17.39
2022-11-23T00:39:37.093Z,17.40
2022-11-23T00:39:47.094Z,17.38
2022-11-23T00:39:57.093Z,17.38
2022-11-23T00:40:07.097Z,17.38
2022-11-23T00:40:17.095Z,17.39
2022-11-23T00:40:27.082Z,17.38
2022-11-23T00:40:37.101Z,17.38
2022-11-23T00:40:47.100Z,17.38
2022-11-23T00:40:57.104Z,17.39
2022-11-23T00:41:07.103Z,17.38
2022-11-23T00:41:17.113Z,17.38
2022-11-23T00:41:27.104Z,17.38
2022-11-23T00:41:37.088Z,17.38
2022-11-23T00:41:47.105Z,17.39
2022-11-23T00:41:57.107Z,17.39
2022-11-23T00:42:07.106Z,17.39
2022-11-23T00:42:17.106Z,17.39
2022-11-23T00:42:27.108Z,17.40
2022-11-23T00:42:38.323Z,17.38
2022-11-23T00:42:47.111Z,17.39
2022-11-23T00:42:57.111Z,17.39
2022-11-23T00:43:07.093Z,17.39
2022-11-23T00:43:17.112Z,17.38
2022-11-23T00:43:27.118Z,17.38
2022-11-23T00:43:37.119Z,17.38
2022-11-23T00:43:47.115Z,17.38
2022-11-23T00:43:57.125Z,17.39
2022-11-23T00:44:07.116Z,17.39
2022-11-23T00:44:17.117Z,17.38
2022-11-23T00:44:27.119Z,17.38
2022-11-23T00:44:37.120Z,17.38
2022-11-23T00:44:47.145Z,17.39
2022-11-23T00:44:57.124Z,17.39
2022-11-23T00:45:07.123Z,17.39
2022-11-23T00:45:17.123Z,17.38
2022-11-23T00:45:27.123Z,17.39
2022-11-23T00:45:37.125Z,17.38
2022-11-23T00:45:47.126Z,17.39
2022-11-23T00:45:57.109Z,17.39
2022-11-23T00:46:07.126Z,17.39
2022-11-23T00:46:17.137Z,17.38
2022-11-23T00:46:27.135Z,17.38
2022-11-23T00:46:37.130Z,17.38
2022-11-23T00:46:47.133Z,17.39
2022-11-23T00:46:57.135Z,17.39
2022-11-23T00:47:07.135Z,17.39
2022-11-23T00:47:17.133Z,17.39
2022-11-23T00:47:27.134Z,17.38
2022-11-23T00:47:37.140Z,17.40
2022-11-23T00:47:47.137Z,17.39
2022-11-23T00:47:57.141Z,17.39
2022-11-23T00:48:07.139Z,17.39
2022-11-23T00:48:17.138Z,17.38
2022-11-23T00:48:27.147Z,17.38
2022-11-23T00:48:37.142Z,17.39
2022-11-23T00:48:47.148Z,17.39
2022-11-23T00:48:57.157Z,17.39
2022-11-23T00:49:07.146Z,17.38
2022-11-23T00:49:17.144Z,17.39
2022-11-23T00:49:27.149Z,17.38
2022-11-23T00:49:37.145Z,17.38
2022-11-23T00:49:47.147Z,17.39
2022-11-23T00:49:57.154Z,17.38
2022-11-23T00:50:07.152Z,17.36
2022-11-23T00:50:17.149Z,17.38
2022-11-23T00:50:27.148Z,17.39
2022-11-23T00:50:37.152Z,17.38
2022-11-23T00:50:47.158Z,17.38
2022-11-23T00:50:57.153Z,17.36
2022-11-23T00:51:07.159Z,17.38
2022-11-23T00:51:17.166Z,17.38
2022-11-23T00:51:27.161Z,17.38
2022-11-23T00:51:37.163Z,17.38
2022-11-23T00:51:47.157Z,17.36
2022-11-23T00:51:57.157Z,17.36
2022-11-23T00:52:07.160Z,17.36
2022-11-23T00:52:17.164Z,17.36
2022-11-23T00:52:27.165Z,17.36
2022-11-23T00:52:37.163Z,17.38
2022-11-23T00:52:47.165Z,17.39
2022-11-23T00:52:57.166Z,17.36
2022-11-23T00:53:07.171Z,17.38
2022-11-23T00:53:17.173Z,17.38
2022-11-23T00:53:27.170Z,17.38
2022-11-23T00:53:37.169Z,17.36
2022-11-23T00:53:47.173Z,17.38
2022-11-23T00:53:57.173Z,17.35
2022-11-23T00:54:07.174Z,17.35
2022-11-23T00:54:17.175Z,17.36
2022-11-23T00:54:27.176Z,17.36
2022-11-23T00:54:37.174Z,17.36
2022-11-23T00:54:47.178Z,17.36
2022-11-23T00:54:57.181Z,17.38
2022-11-23T00:55:07.175Z,17.36
2022-11-23T00:55:17.176Z,17.36
2022-11-23T00:55:27.179Z,17.36
2022-11-23T00:55:37.179Z,17.36
2022-11-23T00:55:47.178Z,17.35
2022-11-23T00:55:57.179Z,17.36
2022-11-23T00:56:07.182Z,17.36
2022-11-23T00:56:17.193Z,17.36
2022-11-23T00:56:27.191Z,17.38
2022-11-23T00:56:37.186Z,17.36
2022-11-23T00:56:47.187Z,17.36
2022-11-23T00:56:57.190Z,17.35
2022-11-23T00:57:07.192Z,17.36
2022-11-23T00:57:17.191Z,17.35
2022-11-23T00:57:27.191Z,17.35
2022-11-23T00:57:37.195Z,17.35
2022-11-23T00:57:47.193Z,17.36
2022-11-23T00:57:57.192Z,17.36
2022-11-23T00:58:07.197Z,17.33
2022-11-23T00:58:17.194Z,17.36
2022-11-23T00:58:27.194Z,17.35
2022-11-23T00:58:37.194Z,17.36
2022-11-23T00:58:47.197Z,17.35
2022-11-23T00:58:57.196Z,17.38
2022-11-23T00:59:07.196Z,17.36
2022-11-23T00:59:17.205Z,17.35
2022-11-23T00:59:27.201Z,17.33
2022-11-23T00:59:37.198Z,17.35
2022-11-23T00:59:47.200Z,17.33
2022-11-23T00:59:57.200Z,17.35
2022-11-23T01:00:07.200Z,17.35
2022-11-23T01:00:17.203Z,17.35
2022-11-23T01:00:27.203Z,17.35
2022-11-23T01:00:37.207Z,17.35
2022-11-23T01:00:47.212Z,17.33
2022-11-23T01:00:57.218Z,17.35
2022-11-23T01:01:07.272Z,17.33
2022-11-23T01:01:17.242Z,17.35
2022-11-23T01:01:27.276Z,17.35
2022-11-23T01:01:37.396Z,17.35
2022-11-23T01:01:47.239Z,17.33
2022-11-23T01:01:57.254Z,17.36
2022-11-23T01:02:07.212Z,17.33
2022-11-23T01:02:17.215Z,17.35
2022-11-23T01:02:27.198Z,17.35
2022-11-23T01:02:37.213Z,17.36
2022-11-23T01:02:47.218Z,17.35
2022-11-23T01:02:57.220Z,17.33
2022-11-23T01:03:07.218Z,17.35
2022-11-23T01:03:17.217Z,17.33
2022-11-23T01:03:27.220Z,17.35
2022-11-23T01:03:37.218Z,17.35
2022-11-23T01:03:47.221Z,17.35
2022-11-23T01:03:57.222Z,17.35
2022-11-23T01:04:07.222Z,17.35
2022-11-23T01:04:17.222Z,17.35
2022-11-23T01:04:27.224Z,17.35
2022-11-23T01:04:37.224Z,17.36
2022-11-23T01:04:47.227Z,17.36
2022-11-23T01:04:57.229Z,17.33
2022-11-23T01:05:07.227Z,17.35
2022-11-23T01:05:17.227Z,17.35
2022-11-23T01:05:27.230Z,17.35
2022-11-23T01:05:37.227Z,17.33
2022-11-23T01:05:47.229Z,17.33
2022-11-23T01:05:57.231Z,17.33
2022-11-23T01:06:07.229Z,17.33
2022-11-23T01:06:17.241Z,17.33
2022-11-23T01:06:27.229Z,17.36
2022-11-23T01:06:37.229Z,17.33
2022-11-23T01:06:47.234Z,17.35
2022-11-23T01:06:57.239Z,17.33
2022-11-23T01:07:07.268Z,17.33
2022-11-23T01:07:17.263Z,17.35
2022-11-23T01:07:27.248Z,17.35
2022-11-23T01:07:37.266Z,17.35
2022-11-23T01:07:47.257Z,17.33
2022-11-23T01:07:57.240Z,17.35
2022-11-23T01:08:07.242Z,17.33
2022-11-23T01:08:17.243Z,17.35
2022-11-23T01:08:27.250Z,17.33
2022-11-23T01:08:37.244Z,17.36
2022-11-23T01:08:47.248Z,17.33
2022-11-23T01:08:57.246Z,17.33
2022-11-23T01:09:07.251Z,17.35
2022-11-23T01:09:17.249Z,17.35
2022-11-23T01:09:27.248Z,17.33
2022-11-23T01:09:37.255Z,17.35
2022-11-23T01:09:47.254Z,17.33
2022-11-23T01:09:57.254Z,17.35
2022-11-23T01:10:07.255Z,17.33
2022-11-23T01:10:17.256Z,17.35
2022-11-23T01:10:27.258Z,17.33
2022-11-23T01:10:37.259Z,17.33
2022-11-23T01:10:47.258Z,17.33
2022-11-23T01:10:57.242Z,17.33
2022-11-23T01:11:07.274Z,17.33
2022-11-23T01:11:17.298Z,17.33
2022-11-23T01:11:27.262Z,17.33
2022-11-23T01:11:37.263Z,17.35
2022-11-23T01:11:47.263Z,17.33
2022-11-23T01:11:57.266Z,17.33
2022-11-23T01:12:07.264Z,17.33
2022-11-23T01:12:17.268Z,17.33
2022-11-23T01:12:27.271Z,17.33
2022-11-23T01:12:37.270Z,17.33
2022-11-23T01:12:47.269Z,17.32
2022-11-23T01:12:57.271Z,17.33
2022-11-23T01:13:07.272Z,17.32
2022-11-23T01:13:17.279Z,17.33
2022-11-23T01:13:27.271Z,17.32
2022-11-23T01:13:37.255Z,17.33
2022-11-23T01:13:47.272Z,17.33
2022-11-23T01:13:57.276Z,17.32
2022-11-23T01:14:07.262Z,17.33
2022-11-23T01:14:17.275Z,17.32
2022-11-23T01:14:27.280Z,17.32
2022-11-23T01:14:37.278Z,17.32
2022-11-23T01:14:47.277Z,17.32
2022-11-23T01:14:57.280Z,17.32
2022-11-23T01:15:07.280Z,17.32
2022-11-23T01:15:17.283Z,17.32
2022-11-23T01:15:27.286Z,17.32
2022-11-23T01:15:37.287Z,17.30
2022-11-23T01:15:47.286Z,17.33
2022-11-23T01:15:57.284Z,17.30
2022-11-23T01:16:07.285Z,17.32
2022-11-23T01:16:23.619Z,17.33
2022-11-23T01:16:28.290Z,17.32
2022-11-23T01:16:37.287Z,17.32
2022-11-23T01:16:47.291Z,17.32
2022-11-23T01:16:57.291Z,17.32
2022-11-23T01:17:07.291Z,17.30
2022-11-23T01:17:17.293Z,17.30
2022-11-23T01:17:27.292Z,17.30
2022-11-23T01:17:37.296Z,17.32
2022-11-23T01:17:47.295Z,17.30
2022-11-23T01:17:57.299Z,17.32
2022-11-23T01:18:07.302Z,17.32
2022-11-23T01:18:17.297Z,17.32
2022-11-23T01:18:27.300Z,17.33
2022-11-23T01:18:37.299Z,17.32
2022-11-23T01:18:47.298Z,17.30
2022-11-23T01:18:57.304Z,17.30
2022-11-23T01:19:07.301Z,17.32
2022-11-23T01:19:17.304Z,17.30
2022-11-23T01:19:27.320Z,17.33
2022-11-23T01:19:37.307Z,17.30
2022-11-23T01:19:47.305Z,17.32
2022-11-23T01:19:57.305Z,17.30
2022-11-23T01:20:07.307Z,17.32
2022-11-23T01:20:17.305Z,17.32
2022-11-23T01:20:27.307Z,17.32
2022-11-23T01:20:37.307Z,17.33
2022-11-23T01:20:47.314Z,17.30
2022-11-23T01:20:57.328Z,17.33
2022-11-23T01:21:07.311Z,17.32
2022-11-23T01:21:17.314Z,17.32
2022-11-23T01:21:27.318Z,17.32
2022-11-23T01:21:37.321Z,17.30
2022-11-23T01:21:47.319Z,17.30
2022-11-23T01:21:57.320Z,17.30
2022-11-23T01:22:07.323Z,17.30
2022-11-23T01:22:17.327Z,17.32
2022-11-23T01:22:27.319Z,17.32
2022-11-23T01:22:37.321Z,17.32
2022-11-23T01:22:47.336Z,17.32
2022-11-23T01:22:57.330Z,17.32
2022-11-23T01:23:07.321Z,17.30
2022-11-23T01:23:17.358Z,17.32
2022-11-23T01:23:27.339Z,17.30
2022-11-23T01:23:37.326Z,17.30
2022-11-23T01:23:47.327Z,17.30
2022-11-23T01:23:57.327Z,17.30
2022-11-23T01:24:07.327Z,17.33
2022-11-23T01:24:17.309Z,17.32
2022-11-23T01:24:27.330Z,17.32
2022-11-23T01:24:37.329Z,17.32
2022-11-23T01:24:47.330Z,17.30
2022-11-23T01:24:57.331Z,17.32
2022-11-23T01:25:07.333Z,17.30
2022-11-23T01:25:17.331Z,17.30
2022-11-23T01:25:27.337Z,17.30
2022-11-23T01:25:37.336Z,17.30
2022-11-23T01:25:47.337Z,17.32
2022-11-23T01:25:57.391Z,17.32
2022-11-23T01:26:07.339Z,17.30
2022-11-23T01:26:17.340Z,17.32
2022-11-23T01:26:27.344Z,17.30
2022-11-23T01:26:37.341Z,17.32
2022-11-23T01:26:47.345Z,17.32
2022-11-23T01:26:57.346Z,17.32
2022-11-23T01:27:07.342Z,17.30
2022-11-23T01:27:17.345Z,17.30
2022-11-23T01:27:27.349Z,17.30
2022-11-23T01:27:37.347Z,17.30
2022-11-23T01:27:47.349Z,17.32
2022-11-23T01:27:57.366Z,17.30
2022-11-23T01:28:07.349Z,17.33
2022-11-23T01:28:17.352Z,17.32
2022-11-23T01:28:27.354Z,17.32
2022-11-23T01:28:37.353Z,17.32
2022-11-23T01:28:47.355Z,17.30
2022-11-23T01:28:57.357Z,17.32
2022-11-23T01:29:07.357Z,17.32
2022-11-23T01:29:17.357Z,17.32
2022-11-23T01:29:27.357Z,17.30
2022-11-23T01:29:37.361Z,17.30
2022-11-23T01:29:47.358Z,17.32
2022-11-23T01:29:57.360Z,17.32
2022-11-23T01:30:07.362Z,17.30
2022-11-23T01:30:17.367Z,17.32
2022-11-23T01:30:27.363Z,17.30
2022-11-23T01:30:37.364Z,17.30
2022-11-23T01:30:47.366Z,17.32
2022-11-23T01:30:57.366Z,17.32
2022-11-23T01:31:07.370Z,17.30
2022-11-23T01:31:17.369Z,17.32
2022-11-23T01:31:27.373Z,17.32
2022-11-23T01:31:40.573Z,17.30
2022-11-23T01:31:48.372Z,17.30
2022-11-23T01:31:57.373Z,17.32
2022-11-23T01:32:07.373Z,17.32
2022-11-23T01:32:17.380Z,17.32
2022-11-23T01:32:27.377Z,17.32
2022-11-23T01:32:37.377Z,17.30
2022-11-23T01:32:47.378Z,17.32
2022-11-23T01:32:57.378Z,17.32
2022-11-23T01:33:07.380Z,17.32
2022-11-23T01:33:17.379Z,17.32
2022-11-23T01:33:27.381Z,17.32
2022-11-23T01:33:37.397Z,17.32
2022-11-23T01:33:47.386Z,17.32
2022-11-23T01:33:57.386Z,17.30
2022-11-23T01:34:07.385Z,17.32
2022-11-23T01:34:17.387Z,17.32
2022-11-23T01:34:27.385Z,17.32
2022-11-23T01:34:37.386Z,17.32
2022-11-23T01:34:47.385Z,17.33
2022-11-23T01:34:57.389Z,17.32
2022-11-23T01:35:07.391Z,17.33
2022-11-23T01:35:17.388Z,17.32
2022-11-23T01:35:27.388Z,17.32
2022-11-23T01:35:37.395Z,17.33
2022-11-23T01:35:47.392Z,17.32
2022-11-23T01:35:57.397Z,17.33
2022-11-23T01:36:07.378Z,17.32
2022-11-23T01:36:17.393Z,17.32
2022-11-23T01:36:27.397Z,17.32
2022-11-23T01:36:37.395Z,17.32
2022-11-23T01:36:47.400Z,17.32
2022-11-23T01:36:57.396Z,17.32
2022-11-23T01:37:07.399Z,17.32
2022-11-23T01:37:17.399Z,17.33
2022-11-23T01:37:27.399Z,17.33
2022-11-23T01:37:37.404Z,17.32
2022-11-23T01:37:47.405Z,17.30
2022-11-23T01:37:57.405Z,17.32
2022-11-23T01:38:07.406Z,17.30
2022-11-23T01:38:18.501Z,17.32
2022-11-23T01:38:27.407Z,17.32
2022-11-23T01:38:37.408Z,17.32
2022-11-23T01:38:47.415Z,17.33
2022-11-23T01:38:57.409Z,17.32
2022-11-23T01:39:07.407Z,17.33
2022-11-23T01:39:17.407Z,17.32
2022-11-23T01:39:27.409Z,17.32
2022-11-23T01:39:37.412Z,17.30
2022-11-23T01:39:47.411Z,17.30
2022-11-23T01:39:57.415Z,17.32
2022-11-23T01:40:07.416Z,17.32
2022-11-23T01:40:17.415Z,17.32
2022-11-23T01:40:27.426Z,17.32
2022-11-23T01:40:37.415Z,17.32
2022-11-23T01:40:47.415Z,17.30
2022-11-23T01:40:57.416Z,17.32
2022-11-23T01:41:07.416Z,17.32
2022-11-23T01:41:17.416Z,17.32
2022-11-23T01:41:27.429Z,17.32
2022-11-23T01:41:37.419Z,17.32
2022-11-23T01:41:47.419Z,17.32
2022-11-23T01:41:57.421Z,17.32
2022-11-23T01:42:07.423Z,17.32
2022-11-23T01:42:18.107Z,17.32
2022-11-23T01:42:27.424Z,17.32
2022-11-23T01:42:37.424Z,17.32
2022-11-23T01:42:47.429Z,17.32
2022-11-23T01:42:57.457Z,17.32
2022-11-23T01:43:07.429Z,17.33
2022-11-23T01:43:17.429Z,17.32
2022-11-23T01:43:27.414Z,17.32
2022-11-23T01:43:37.433Z,17.30
2022-11-23T01:43:47.434Z,17.32
2022-11-23T01:43:57.435Z,17.33
2022-11-23T01:44:07.435Z,17.28
2022-11-23T01:44:17.436Z,17.30
2022-11-23T01:44:27.445Z,17.30
2022-11-23T01:44:37.437Z,17.30
2022-11-23T01:44:47.439Z,17.32
2022-11-23T01:44:57.439Z,17.32
2022-11-23T01:45:07.438Z,17.30
2022-11-23T01:45:17.444Z,17.30
2022-11-23T01:45:27.443Z,17.32
2022-11-23T01:45:37.445Z,17.28
2022-11-23T01:45:47.427Z,17.32
2022-11-23T01:45:57.444Z,17.32
2022-11-23T01:46:07.429Z,17.30
2022-11-23T01:46:17.446Z,17.30
2022-11-23T01:46:27.460Z,17.32
2022-11-23T01:46:37.451Z,17.28
2022-11-23T01:46:47.451Z,17.30
2022-11-23T01:46:57.449Z,17.30
2022-11-23T01:47:07.447Z,17.33
2022-11-23T01:47:17.450Z,17.30
2022-11-23T01:47:27.453Z,17.30
2022-11-23T01:47:37.457Z,17.30
2022-11-23T01:47:47.454Z,17.32
2022-11-23T01:47:57.453Z,17.30
2022-11-23T01:48:07.456Z,17.28
2022-11-23T01:48:17.456Z,17.32
2022-11-23T01:48:27.439Z,17.30
2022-11-23T01:48:37.457Z,17.30
2022-11-23T01:48:47.458Z,17.30
2022-11-23T01:48:57.469Z,17.28
2022-11-23T01:49:07.460Z,17.30
2022-11-23T01:49:17.462Z,17.32
2022-11-23T01:49:27.449Z,17.32
2022-11-23T01:49:37.466Z,17.32
2022-11-23T01:49:47.464Z,17.30
2022-11-23T01:49:57.468Z,17.30
2022-11-23T01:50:07.467Z,17.30
2022-11-23T01:50:17.469Z,17.30
2022-11-23T01:50:27.469Z,17.30
2022-11-23T01:50:37.469Z,17.30
2022-11-23T01:50:47.470Z,17.28
2022-11-23T01:50:57.472Z,17.28
2022-11-23T01:51:07.474Z,17.28
2022-11-23T01:51:17.474Z,17.28
2022-11-23T01:51:27.482Z,17.30
2022-11-23T01:51:37.479Z,17.28
2022-11-23T01:51:47.476Z,17.30
2022-11-23T01:51:57.476Z,17.28
2022-11-23T01:52:07.475Z,17.30
2022-11-23T01:52:17.475Z,17.28
2022-11-23T01:52:27.480Z,17.28
2022-11-23T01:52:37.480Z,17.27
2022-11-23T01:52:47.481Z,17.28
2022-11-23T01:52:57.480Z,17.28
2022-11-23T01:53:07.480Z,17.28
2022-11-23T01:53:17.481Z,17.28
2022-11-23T01:53:27.479Z,17.27
2022-11-23T01:53:37.481Z,17.27
2022-11-23T01:53:47.484Z,17.28
2022-11-23T01:53:57.485Z,17.30
2022-11-23T01:54:07.484Z,17.28
2022-11-23T01:54:17.493Z,17.28
2022-11-23T01:54:27.488Z,17.27
2022-11-23T01:54:37.490Z,17.27
2022-11-23T01:54:47.489Z,17.27
2022-11-23T01:54:57.490Z,17.27
2022-11-23T01:55:08.752Z,17.25
2022-11-23T01:55:17.494Z,17.25
2022-11-23T01:55:27.493Z,17.27
2022-11-23T01:55:37.495Z,17.25
2022-11-23T01:55:47.497Z,17.27
2022-11-23T01:55:57.501Z,17.25
2022-11-23T01:56:07.497Z,17.24
2022-11-23T01:56:17.503Z,17.27
2022-11-23T01:56:27.510Z,17.25
2022-11-23T01:56:37.501Z,17.27
2022-11-23T01:56:47.501Z,17.25
2022-11-23T01:56:57.500Z,17.27
2022-11-23T01:57:07.503Z,17.27
2022-11-23T01:57:17.502Z,17.27
2022-11-23T01:57:27.505Z,17.27
2022-11-23T01:57:37.587Z,17.25
2022-11-23T01:57:47.503Z,17.27
2022-11-23T01:57:57.503Z,17.27
2022-11-23T01:58:07.506Z,17.27
2022-11-23T01:58:17.510Z,17.27
2022-11-23T01:58:27.505Z,17.25
2022-11-23T01:58:37.506Z,17.25
2022-11-23T01:58:47.506Z,17.25
2022-11-23T01:58:57.508Z,17.25
2022-11-23T01:59:07.508Z,17.25
2022-11-23T01:59:17.510Z,17.24
2022-11-23T01:59:27.511Z,17.25
2022-11-23T01:59:37.512Z,17.25
2022-11-23T01:59:47.514Z,17.24
2022-11-23T01:59:57.612Z,17.25
2022-11-23T02:00:07.517Z,17.24
2022-11-23T02:00:17.517Z,17.24
2022-11-23T02:00:27.519Z,17.24
2022-11-23T02:00:37.521Z,17.27
2022-11-23T02:00:47.594Z,17.25
2022-11-23T02:00:57.544Z,17.25
2022-11-23T02:01:07.576Z,17.22
2022-11-23T02:01:17.628Z,17.25
2022-11-23T02:01:27.590Z,17.24
2022-11-23T02:01:37.613Z,17.24
2022-11-23T02:01:47.527Z,17.25
2022-11-23T02:01:57.527Z,17.24
2022-11-23T02:02:07.527Z,17.24
2022-11-23T02:02:17.527Z,17.25
2022-11-23T02:02:27.525Z,17.24
2022-11-23T02:02:37.528Z,17.24
2022-11-23T02:02:47.533Z,17.24
2022-11-23T02:02:57.530Z,17.24
2022-11-23T02:03:07.535Z,17.24
2022-11-23T02:03:17.529Z,17.25
2022-11-23T02:03:27.534Z,17.24
2022-11-23T02:03:37.535Z,17.24
2022-11-23T02:03:47.540Z,17.24
2022-11-23T02:03:57.539Z,17.22
2022-11-23T02:04:07.540Z,17.25
2022-11-23T02:04:17.537Z,17.22
2022-11-23T02:04:27.538Z,17.22
2022-11-23T02:04:37.540Z,17.24
2022-11-23T02:04:47.541Z,17.22
2022-11-23T02:04:57.539Z,17.24
2022-11-23T02:05:07.545Z,17.24
2022-11-23T02:05:17.543Z,17.22
2022-11-23T02:05:27.545Z,17.22
2022-11-23T02:05:37.543Z,17.24
2022-11-23T02:05:47.543Z,17.24
2022-11-23T02:05:57.545Z,17.24
2022-11-23T02:06:07.545Z,17.24
2022-11-23T02:06:17.545Z,17.24
2022-11-23T02:06:27.590Z,17.22
2022-11-23T02:06:37.549Z,17.22
2022-11-23T02:06:47.557Z,17.24
2022-11-23T02:06:57.555Z,17.22
2022-11-23T02:07:07.608Z,17.22
2022-11-23T02:07:17.565Z,17.24
2022-11-23T02:07:27.608Z,17.22
2022-11-23T02:07:37.733Z,17.22
2022-11-23T02:07:47.627Z,17.22
2022-11-23T02:07:57.554Z,17.22
2022-11-23T02:08:07.557Z,17.24
2022-11-23T02:08:17.554Z,17.22
2022-11-23T02:08:27.556Z,17.24
2022-11-23T02:08:37.555Z,17.21
2022-11-23T02:08:47.556Z,17.22